createdAt,value
2023-01-02T00:01:12.898Z,99547.19
2023-01-02T00:06:17.782Z,99519.28
2023-01-02T00:11:20.573Z,99530.00
2023-01-02T00:16:24.961Z,99532.03
2023-01-02T00:21:29.809Z,99547.03
2023-01-02T00:26:32.622Z,99558.78
2023-01-02T00:31:36.742Z,99608.81
2023-01-02T00:36:39.498Z,99631.41
2023-01-02T00:41:42.241Z,99632.06
2023-01-02T00:46:46.378Z,99616.78
2023-01-02T00:51:49.228Z,99616.03
2023-01-02T00:56:51.940Z,99646.88
2023-01-02T01:01:56.149Z,99658.81
2023-01-02T01:06:58.945Z,99677.41
2023-01-02T01:12:04.861Z,99693.63
2023-01-02T01:17:09.394Z,99718.78
2023-01-02T01:22:12.115Z,99710.78
2023-01-02T01:27:14.840Z,99700.09
2023-01-02T01:32:18.905Z,99695.97
2023-01-02T01:37:21.698Z,99691.06
2023-01-02T01:42:24.411Z,99690.88
2023-01-02T01:47:37.013Z,99684.94
2023-01-02T01:52:42.165Z,99698.22
2023-01-02T01:57:46.414Z,99698.63
2023-01-02T02:02:53.064Z,99686.94
2023-01-02T02:08:01.356Z,99679.59
2023-01-02T02:13:04.067Z,99669.03
2023-01-02T02:18:18.031Z,99665.66
2023-01-02T02:23:37.894Z,99659.53
2023-01-02T02:28:55.528Z,99657.91
2023-01-02T02:34:01.354Z,99672.28
2023-01-02T02:39:10.955Z,99691.19
2023-01-02T02:44:24.375Z,99671.25
2023-01-02T02:49:37.919Z,99682.81
2023-01-02T02:54:43.661Z,99686.75
2023-01-02T02:59:46.438Z,99681.44
2023-01-02T03:04:54.184Z,99678.78
2023-01-02T03:10:03.755Z,99675.03
2023-01-02T03:15:13.257Z,99669.66
2023-01-02T03:20:20.281Z,99669.66
2023-01-02T03:25:23.229Z,99658.41
2023-01-02T03:30:26.001Z,99656.84
2023-01-02T03:35:34.197Z,99673.25
2023-01-02T03:40:40.283Z,99687.41
2023-01-02T03:45:47.021Z,99691.53
2023-01-02T03:50:52.698Z,99683.94
2023-01-02T03:56:02.354Z,99655.44
2023-01-02T04:01:08.088Z,99647.75
2023-01-02T04:06:14.917Z,99661.22
2023-01-02T04:11:20.309Z,99673.50
2023-01-02T04:16:24.620Z,99696.59
2023-01-02T04:21:31.475Z,99715.72
2023-01-02T04:26:37.733Z,99697.63
2023-01-02T04:31:45.624Z,99687.94
2023-01-02T04:36:50.413Z,99682.66
2023-01-02T04:41:53.131Z,99687.22
2023-01-02T04:46:55.817Z,99686.25
2023-01-02T04:51:59.894Z,99688.16
2023-01-02T04:57:02.619Z,99706.84
2023-01-02T05:02:05.914Z,99711.00
2023-01-02T05:07:10.093Z,99707.69
2023-01-02T05:12:12.803Z,99707.59
2023-01-02T05:17:15.522Z,99712.00
2023-01-02T05:22:36.975Z,99712.81
2023-01-02T05:27:40.983Z,99729.16
2023-01-02T05:32:43.697Z,99746.00
2023-01-02T05:37:48.227Z,99748.16
2023-01-02T05:42:50.999Z,99753.56
2023-01-02T05:47:53.720Z,99771.06
2023-01-02T05:52:57.936Z,99780.34
2023-01-02T05:58:02.353Z,99787.09
2023-01-02T06:03:05.337Z,99795.28
2023-01-02T06:08:09.408Z,99796.28
2023-01-02T06:13:12.090Z,99814.91
2023-01-02T06:18:14.768Z,99808.25
2023-01-02T06:23:18.812Z,99806.34
2023-01-02T06:28:21.790Z,99815.94
2023-01-02T06:33:24.492Z,99811.41
2023-01-02T06:38:28.812Z,99826.72
2023-01-02T06:43:32.090Z,99821.88
2023-01-02T06:48:35.422Z,99819.81
2023-01-02T06:53:40.953Z,99815.47
2023-01-02T06:58:43.651Z,99813.78
2023-01-02T07:03:46.594Z,99800.78
2023-01-02T07:08:50.730Z,99806.31
2023-01-02T07:13:55.005Z,99810.19
2023-01-02T07:18:57.759Z,99826.41
2023-01-02T07:24:01.822Z,99832.19
2023-01-02T07:29:04.537Z,99831.53
2023-01-02T07:34:07.233Z,99841.25
2023-01-02T07:39:11.291Z,99841.13
2023-01-02T07:44:13.980Z,99836.81
2023-01-02T07:49:16.696Z,99848.63
2023-01-02T07:54:20.745Z,99849.31
2023-01-02T07:59:23.437Z,99868.00
2023-01-02T08:04:26.151Z,99877.16
2023-01-02T08:09:30.221Z,99864.38
2023-01-02T08:14:32.935Z,99890.16
2023-01-02T08:19:35.626Z,99905.84
2023-01-02T08:24:39.660Z,99906.63
2023-01-02T08:29:42.556Z,99916.44
2023-01-02T08:34:45.248Z,99918.94
2023-01-02T08:39:49.313Z,99921.19
2023-01-02T08:44:52.056Z,99931.75
2023-01-02T08:49:54.733Z,99955.28
2023-01-02T08:55:00.737Z,99960.63
2023-01-02T09:00:04.101Z,99964.19
2023-01-02T09:05:07.314Z,99979.69
2023-01-02T09:10:12.163Z,99993.88
2023-01-02T09:15:14.851Z,99990.50
2023-01-02T09:20:17.694Z,100017.63
2023-01-02T09:25:24.425Z,100027.09
2023-01-02T09:30:27.355Z,100042.22
2023-01-02T09:35:30.020Z,100045.34
2023-01-02T09:40:35.299Z,100035.31
2023-01-02T09:45:39.762Z,100015.56
2023-01-02T09:50:42.421Z,99990.47
2023-01-02T09:55:48.647Z,99987.00
2023-01-02T10:00:51.949Z,99981.88
2023-01-02T10:06:09.484Z,99969.28
2023-01-02T10:11:25.651Z,99964.19
2023-01-02T10:16:31.463Z,99964.09
2023-01-02T10:21:36.053Z,99960.69
2023-01-02T10:26:43.991Z,99954.47
2023-01-02T10:31:49.755Z,99980.00
2023-01-02T10:36:52.925Z,99979.03
2023-01-02T10:41:58.633Z,99994.66
2023-01-02T10:47:12.526Z,100002.34
2023-01-02T10:52:20.764Z,100017.78
2023-01-02T10:57:27.908Z,100054.94
2023-01-02T11:02:33.349Z,100073.50
2023-01-02T11:07:37.871Z,100088.97
2023-01-02T11:12:49.232Z,100087.91
2023-01-02T11:17:52.220Z,100106.81
2023-01-02T11:22:56.848Z,100093.56
2023-01-02T11:28:01.513Z,100104.88
2023-01-02T11:33:09.672Z,100101.28
2023-01-02T11:38:21.633Z,100120.63
2023-01-02T11:43:51.972Z,100123.09
2023-01-02T11:48:59.146Z,100125.00
2023-01-02T11:54:04.734Z,100143.50
2023-01-02T11:59:14.835Z,100146.63
2023-01-02T12:04:17.578Z,100154.47
2023-01-02T12:09:25.260Z,100142.75
2023-01-02T12:14:44.544Z,100145.28
2023-01-02T12:20:05.675Z,100154.28
2023-01-02T12:25:35.472Z,100157.91
2023-01-02T12:30:46.166Z,100174.56
2023-01-02T12:36:16.319Z,100186.53
2023-01-02T12:41:26.255Z,100174.72
2023-01-02T12:46:40.813Z,100174.78
2023-01-02T12:51:49.059Z,100195.75
2023-01-02T12:57:00.243Z,100198.69
2023-01-02T13:02:07.513Z,100215.94
2023-01-02T13:07:14.957Z,100224.69
2023-01-02T13:12:19.493Z,100250.13
2023-01-02T13:17:38.179Z,100255.16
2023-01-02T13:22:47.739Z,100258.63
2023-01-02T13:27:56.083Z,100276.78
2023-01-02T13:33:00.368Z,100287.88
2023-01-02T13:38:04.418Z,100289.25
2023-01-02T13:43:13.278Z,100299.81
2023-01-02T13:48:23.685Z,100298.59
2023-01-02T13:53:31.793Z,100307.06
2023-01-02T13:58:43.436Z,100319.16
2023-01-02T14:03:47.827Z,100325.44
2023-01-02T14:09:09.373Z,100324.16
2023-01-02T14:14:14.110Z,100331.09
2023-01-02T14:19:21.015Z,100353.69
2023-01-02T14:24:29.565Z,100365.13
2023-01-02T14:29:40.424Z,100363.44
2023-01-02T14:34:47.273Z,100354.66
2023-01-02T14:39:49.978Z,100363.81
2023-01-02T14:44:55.721Z,100347.19
2023-01-02T14:50:00.781Z,100347.31
2023-01-02T14:55:07.269Z,100365.47
2023-01-02T15:00:19.725Z,100351.38
2023-01-02T15:05:32.091Z,100365.78
2023-01-02T15:10:35.183Z,100359.25
2023-01-02T15:15:39.549Z,100378.50
2023-01-02T15:20:43.947Z,100375.06
2023-01-02T15:25:46.694Z,100380.78
2023-01-02T15:30:59.235Z,100390.91
2023-01-02T15:36:06.129Z,100392.63
2023-01-02T15:41:09.262Z,100400.13
2023-01-02T15:46:12.550Z,100393.06
2023-01-02T15:51:18.536Z,100366.06
2023-01-02T15:56:33.276Z,100355.06
2023-01-02T16:01:45.512Z,100361.16
2023-01-02T16:06:49.890Z,100364.75
2023-01-02T16:11:54.880Z,100375.06
2023-01-02T16:17:02.992Z,100365.47
2023-01-02T16:22:14.859Z,100361.22
2023-01-02T16:27:25.175Z,100351.69
2023-01-02T16:32:29.628Z,100350.19
2023-01-02T16:37:35.710Z,100355.28
2023-01-02T16:42:40.908Z,100354.19
2023-01-02T16:47:44.623Z,100353.34
2023-01-02T16:52:48.737Z,100356.06
2023-01-02T16:57:52.381Z,100348.88
2023-01-02T17:02:55.291Z,100351.19
2023-01-02T17:07:59.405Z,100342.19
2023-01-02T17:13:02.476Z,100358.28
2023-01-02T17:18:05.401Z,100361.28
2023-01-02T17:23:09.931Z,100362.78
2023-01-02T17:28:13.253Z,100353.34
2023-01-02T17:33:16.524Z,100372.56
2023-01-02T17:38:20.666Z,100387.34
2023-01-02T17:43:23.345Z,100387.56
2023-01-02T17:48:26.108Z,100410.09
2023-01-02T17:53:30.165Z,100421.50
2023-01-02T17:58:32.937Z,100440.72
2023-01-02T18:03:35.640Z,100451.63
2023-01-02T18:08:39.841Z,100470.09
2023-01-02T18:13:44.535Z,100480.69
2023-01-02T18:18:47.362Z,100475.56
2023-01-02T18:23:55.624Z,100473.00
2023-01-02T18:29:09.493Z,100465.28
2023-01-02T18:34:46.443Z,100473.69
2023-01-02T18:39:43.439Z,100469.09
2023-01-02T18:44:46.572Z,100467.47
2023-01-02T18:49:49.277Z,100449.16
2023-01-02T18:55:01.078Z,100461.88
2023-01-02T19:00:18.600Z,100468.50
2023-01-02T19:05:24.939Z,100467.22
2023-01-02T19:10:36.607Z,100479.19
2023-01-02T19:15:43.576Z,100441.97
2023-01-02T19:20:46.686Z,100434.94
2023-01-02T19:25:51.346Z,100447.75
2023-01-02T19:30:54.215Z,100469.91
2023-01-02T19:35:58.728Z,100468.41
2023-01-02T19:41:03.133Z,100469.09
2023-01-02T19:46:06.091Z,100471.38
2023-01-02T19:51:09.692Z,100486.22
2023-01-02T19:56:14.953Z,100493.38
2023-01-02T20:01:17.764Z,100489.25
2023-01-02T20:06:20.524Z,100489.81
2023-01-02T20:11:41.888Z,100490.63
2023-01-02T20:16:44.630Z,100486.72
2023-01-02T20:21:47.422Z,100485.81
2023-01-02T20:26:51.542Z,100490.22
2023-01-02T20:31:54.510Z,100486.78
2023-01-02T20:36:57.905Z,100485.41
2023-01-02T20:42:02.167Z,100501.06
2023-01-02T20:47:04.948Z,100513.09
2023-01-02T20:52:07.773Z,100517.28
2023-01-02T20:57:11.875Z,100537.22
2023-01-02T21:02:14.673Z,100549.53
2023-01-02T21:07:17.452Z,100559.19
2023-01-02T21:12:39.041Z,100557.13
2023-01-02T21:17:41.885Z,100555.69
2023-01-02T21:22:44.576Z,100554.84
2023-01-02T21:27:48.734Z,100568.25
2023-01-02T21:32:51.485Z,100576.13
2023-01-02T21:37:54.220Z,100582.72
2023-01-02T21:42:58.361Z,100581.28
2023-01-02T21:48:01.209Z,100584.72
2023-01-02T21:53:03.893Z,100583.00
2023-01-02T21:58:15.403Z,100577.69
2023-01-02T22:03:18.456Z,100579.66
2023-01-02T22:08:21.250Z,100585.06
2023-01-02T22:13:25.319Z,100594.00
2023-01-02T22:18:29.595Z,100604.31
2023-01-02T22:23:33.141Z,100613.66
2023-01-02T22:28:37.652Z,100618.53
2023-01-02T22:33:42.116Z,100628.50
2023-01-02T22:39:17.529Z,100627.59
2023-01-02T22:44:12.083Z,100624.16
2023-01-02T22:49:15.504Z,100618.75
2023-01-02T22:54:19.399Z,100622.34
2023-01-02T22:59:24.703Z,100630.50
2023-01-02T23:04:27.418Z,100640.63
2023-01-02T23:09:30.149Z,100648.88
2023-01-02T23:14:34.206Z,100655.13
2023-01-02T23:19:36.942Z,100661.44
2023-01-02T23:24:40.124Z,100665.88
2023-01-02T23:29:44.465Z,100672.38
2023-01-02T23:34:47.149Z,100682.88
2023-01-02T23:39:49.836Z,100681.50
2023-01-02T23:44:53.857Z,100682.06
2023-01-02T23:49:56.557Z,100695.44
2023-01-02T23:54:59.235Z,100708.97
